Terminal Aerodrome Forecast
Issued by NWS Riverton, WY

Home | Current Version | Previous Version | Text Only | Print | Product List | Glossary On
Versions: 1 2 3 4 5 6 7 8 9 10 11 12 13
000
FTUS45 KRIW 071729
TAFRIW
TAF
KRIW 071729Z 0718/0818 VRB06KT P6SM VCTS SCT050CB BKN090
      TEMPO 0720/0723 VRB12G22KT 6SM -TSRA BKN050CB
     FM080300 VRB08G15KT P6SM VCSH BKN070
     FM080600 08008KT P6SM BKN100=

USA.gov is the U.S. government's official web portal to all federal, state and local government web resources and services.